N2193G MDJB-MDJB
Flight info
| Callsign | N2193G |
|---|---|
| Flight time | 0h 6m |
| Altitude | 2500 |
| Route | MDJB |
| Aircraft | EC45/L-SDE3L/L |
Departure
| Time | 2026-05-07 21:32 |
|---|---|
| Airport | La Isabela International Airport (MDJB) |
Arrival
| Time | 2026-05-07 21:38 |
|---|---|
| Airport | La Isabela International Airport (MDJB) |
| Time | Latitude | Longitude | Altitude | Speed | Heading |
|---|---|---|---|---|---|
| 2026-05-07 21:23 | 18.49355 | -69.89109 | 153 ft | 0 kts | 56° |
| 2026-05-07 21:30 | 18.49355 | -69.89110 | 153 ft | 0 kts | 59° |
| 2026-05-07 21:30 | 18.49352 | -69.89113 | 158 ft | 1 kts | 53° |
| 2026-05-07 21:31 | 18.49399 | -69.89074 | 228 ft | 26 kts | 47° |
| 2026-05-07 21:31 | 18.49689 | -69.88957 | 329 ft | 65 kts | 19° |
| 2026-05-07 21:31 | 18.50185 | -69.88798 | 505 ft | 80 kts | 27° |
| 2026-05-07 21:31 | 18.50738 | -69.88578 | 636 ft | 88 kts | 27° |
| 2026-05-07 21:32 | 18.51292 | -69.88303 | 733 ft | 86 kts | 37° |
| 2026-05-07 21:32 | 18.51886 | -69.88042 | 746 ft | 97 kts | 21° |
| 2026-05-07 21:32 | 18.52531 | -69.87835 | 808 ft | 96 kts | 22° |
| 2026-05-07 21:32 | 18.53154 | -69.87616 | 822 ft | 93 kts | 28° |
| 2026-05-07 21:33 | 18.53760 | -69.87353 | 881 ft | 96 kts | 29° |
| 2026-05-07 21:33 | 18.54391 | -69.87069 | 932 ft | 100 kts | 29° |
| 2026-05-07 21:33 | 18.55037 | -69.86762 | 966 ft | 105 kts | 31° |
| 2026-05-07 21:33 | 18.55694 | -69.86434 | 1042 ft | 97 kts | 35° |
| 2026-05-07 21:34 | 18.56326 | -69.86165 | 1052 ft | 103 kts | 24° |
| 2026-05-07 21:34 | 18.57025 | -69.85964 | 1075 ft | 105 kts | 27° |
| 2026-05-07 21:34 | 18.57741 | -69.85756 | 1067 ft | 108 kts | 21° |
| 2026-05-07 21:34 | 18.58475 | -69.85523 | 1050 ft | 110 kts | 29° |
| 2026-05-07 21:35 | 18.59191 | -69.85291 | 1043 ft | 110 kts | 23° |
| 2026-05-07 21:35 | 18.59920 | -69.85051 | 1057 ft | 108 kts | 23° |
| 2026-05-07 21:35 | 18.60621 | -69.84815 | 1051 ft | 108 kts | 23° |
| 2026-05-07 21:35 | 18.61336 | -69.84552 | 968 ft | 111 kts | 27° |
| 2026-05-07 21:36 | 18.62060 | -69.84268 | 868 ft | 114 kts | 24° |
| 2026-05-07 21:36 | 18.62804 | -69.83989 | 797 ft | 112 kts | 20° |
| 2026-05-07 21:36 | 18.63487 | -69.83624 | 672 ft | 114 kts | 54° |
| 2026-05-07 21:36 | 18.63648 | -69.82878 | 670 ft | 101 kts | 99° |
| 2026-05-07 21:37 | 18.63403 | -69.82258 | 605 ft | 87 kts | 146° |
| 2026-05-07 21:37 | 18.62846 | -69.82261 | 589 ft | 85 kts | 200° |
| 2026-05-07 21:37 | 18.62406 | -69.82661 | 636 ft | 87 kts | 241° |
| 2026-05-07 21:37 | 18.62296 | -69.83310 | 508 ft | 93 kts | 260° |
| 2026-05-07 21:38 | 18.62300 | -69.83933 | 486 ft | 68 kts | 325° |
| 2026-05-07 21:38 | 18.62552 | -69.84241 | 480 ft | 50 kts | 27° |
| 2026-05-07 21:38 | 18.62844 | -69.84220 | 534 ft | 43 kts | 56° |
| 2026-05-07 21:38 | 18.63066 | -69.84029 | 568 ft | 39 kts | 88° |
| 2026-05-07 21:39 | 18.63178 | -69.83733 | 568 ft | 42 kts | 95° |
| 2026-05-07 21:39 | 18.63198 | -69.83482 | 558 ft | 26 kts | 113° |
| 2026-05-07 21:39 | 18.63201 | -69.83354 | 417 ft | 7 kts | 112° |
| 2026-05-07 21:39 | 18.63159 | -69.83333 | 202 ft | 32 kts | 155° |
| 2026-05-07 21:40 | 18.63078 | -69.83253 | 321 ft | 4 kts | 44° |
| 2026-05-07 21:40 | 18.63094 | -69.83240 | 275 ft | 4 kts | 25° |
| 2026-05-07 21:40 | 18.63117 | -69.83232 | 300 ft | 9 kts | 18° |
| 2026-05-07 21:40 | 18.63139 | -69.83264 | 328 ft | 0 kts | 18° |
| 2026-05-07 21:41 | 18.63137 | -69.83262 | 388 ft | 0 kts | 18° |
| 2026-05-07 21:41 | 18.63138 | -69.83262 | 299 ft | 0 kts | 18° |
| 2026-05-07 21:42 | 18.63137 | -69.83262 | 280 ft | 0 kts | 18° |
| 2026-05-07 21:42 | 18.63138 | -69.83262 | 274 ft | 0 kts | 18° |
| 2026-05-07 21:42 | 18.63137 | -69.83262 | 265 ft | 0 kts | 18° |
| 2026-05-07 21:43 | 18.63138 | -69.83262 | 261 ft | 0 kts | 18° |
| 2026-05-07 21:43 | 18.63137 | -69.83262 | 262 ft | 0 kts | 18° |
| 2026-05-07 21:43 | 18.63138 | -69.83263 | 263 ft | 0 kts | 18° |
| 2026-05-07 21:44 | 18.63137 | -69.83262 | 261 ft | 0 kts | 18° |
| 2026-05-07 21:46 | 18.63137 | -69.83263 | 261 ft | 0 kts | 18° |
| 2026-05-07 21:46 | 18.63137 | -69.83262 | 259 ft | 0 kts | 18° |
| 2026-05-07 21:46 | 18.63137 | -69.83263 | 262 ft | 0 kts | 18° |
| 2026-05-07 21:46 | 18.63137 | -69.83262 | 262 ft | 0 kts | 18° |
| 2026-05-07 21:47 | 18.63137 | -69.83263 | 262 ft | 0 kts | 18° |
| 2026-05-07 21:47 | 18.63137 | -69.83262 | 257 ft | 0 kts | 18° |
| 2026-05-07 21:47 | 18.63154 | -69.83242 | 311 ft | 15 kts | 19° |
| 2026-05-07 21:47 | 18.63332 | -69.83148 | 452 ft | 46 kts | 18° |
| 2026-05-07 21:48 | 18.63644 | -69.83239 | 624 ft | 58 kts | 284° |
| 2026-05-07 21:48 | 18.63467 | -69.83669 | 666 ft | 83 kts | 211° |
| 2026-05-07 21:48 | 18.62957 | -69.84108 | 668 ft | 101 kts | 204° |
| 2026-05-07 21:48 | 18.62386 | -69.84557 | 646 ft | 103 kts | 208° |
| 2026-05-07 21:49 | 18.61848 | -69.84997 | 679 ft | 93 kts | 219° |
| 2026-05-07 21:49 | 18.61377 | -69.85438 | 713 ft | 93 kts | 212° |
| 2026-05-07 21:49 | 18.60869 | -69.85834 | 824 ft | 88 kts | 207° |
| 2026-05-07 21:49 | 18.60328 | -69.86185 | 821 ft | 97 kts | 210° |
| 2026-05-07 21:50 | 18.59775 | -69.86619 | 810 ft | 101 kts | 209° |
| 2026-05-07 21:50 | 18.59206 | -69.87052 | 867 ft | 102 kts | 208° |
| 2026-05-07 21:50 | 18.58650 | -69.87508 | 882 ft | 103 kts | 215° |
| 2026-05-07 21:50 | 18.58074 | -69.87978 | 908 ft | 105 kts | 211° |
| 2026-05-07 21:51 | 18.57422 | -69.88387 | 858 ft | 110 kts | 207° |
| 2026-05-07 21:51 | 18.56744 | -69.88794 | 801 ft | 113 kts | 203° |
| 2026-05-07 21:51 | 18.56284 | -69.89028 | 805 ft | 109 kts | 199° |
| 2026-05-07 21:51 | 18.55585 | -69.89356 | 834 ft | 108 kts | 198° |
| 2026-05-07 21:52 | 18.54877 | -69.89666 | 826 ft | 111 kts | 198° |
| 2026-05-07 21:52 | 18.53934 | -69.90065 | 772 ft | 108 kts | 196° |
| 2026-05-07 21:52 | 18.53474 | -69.90278 | 812 ft | 106 kts | 200° |
| 2026-05-07 21:52 | 18.52832 | -69.90587 | 874 ft | 101 kts | 200° |
| 2026-05-07 21:53 | 18.52179 | -69.90893 | 869 ft | 108 kts | 195° |
| 2026-05-07 21:53 | 18.51456 | -69.91188 | 654 ft | 114 kts | 197° |
| 2026-05-07 21:53 | 18.50740 | -69.91478 | 528 ft | 102 kts | 195° |
| 2026-05-07 21:53 | 18.50109 | -69.91733 | 507 ft | 89 kts | 194° |
| 2026-05-07 21:54 | 18.49668 | -69.91915 | 489 ft | 49 kts | 206° |
| 2026-05-07 21:54 | 18.49370 | -69.92041 | 405 ft | 44 kts | 198° |
| 2026-05-07 21:54 | 18.49105 | -69.92140 | 312 ft | 30 kts | 186° |
| 2026-05-07 21:54 | 18.48918 | -69.92167 | 305 ft | 28 kts | 179° |
| 2026-05-07 21:55 | 18.48755 | -69.92128 | 348 ft | 22 kts | 178° |
| 2026-05-07 21:55 | 18.48657 | -69.92296 | 384 ft | 35 kts | 252° |
| 2026-05-07 21:55 | 18.48681 | -69.92575 | 419 ft | 46 kts | 285° |
| 2026-05-07 21:55 | 18.48978 | -69.92709 | 476 ft | 50 kts | 349° |
| 2026-05-07 21:56 | 18.49375 | -69.92711 | 438 ft | 60 kts | 38° |
| 2026-05-07 21:56 | 18.49378 | -69.92395 | 374 ft | 43 kts | 125° |
| 2026-05-07 21:56 | 18.49175 | -69.92213 | 322 ft | 32 kts | 170° |
| 2026-05-07 21:56 | 18.49009 | -69.92187 | 263 ft | 21 kts | 175° |
| 2026-05-07 21:57 | 18.48939 | -69.92178 | 199 ft | 4 kts | 182° |
| 2026-05-07 21:57 | 18.48938 | -69.92176 | 198 ft | 0 kts | 187° |
| 2026-05-07 22:01 | 18.48939 | -69.92178 | 200 ft | 1 kts | 183° |
| 2026-05-07 22:01 | 18.48938 | -69.92185 | 201 ft | 1 kts | 204° |
| 2026-05-07 22:02 | 18.48919 | -69.92208 | 257 ft | 10 kts | 228° |
| 2026-05-07 22:02 | 18.48838 | -69.92276 | 348 ft | 28 kts | 221° |
| 2026-05-07 22:02 | 18.48574 | -69.92518 | 485 ft | 74 kts | 221° |
| 2026-05-07 22:02 | 18.48235 | -69.93003 | 539 ft | 88 kts | 229° |
| 2026-05-07 22:03 | 18.47904 | -69.93581 | 666 ft | 97 kts | 232° |
| 2026-05-07 22:03 | 18.47441 | -69.94115 | 813 ft | 104 kts | 214° |
| 2026-05-07 22:03 | 18.46814 | -69.94583 | 851 ft | 114 kts | 214° |
| 2026-05-07 22:03 | 18.46168 | -69.95110 | 863 ft | 121 kts | 215° |
| 2026-05-07 22:04 | 18.45513 | -69.95666 | 847 ft | 116 kts | 217° |
| 2026-05-07 22:04 | 18.45011 | -69.96304 | 920 ft | 117 kts | 225° |
| 2026-05-07 22:04 | 18.44483 | -69.97002 | 874 ft | 125 kts | 226° |
| 2026-05-07 22:04 | 18.43976 | -69.97717 | 1061 ft | 121 kts | 231° |
| 2026-05-07 22:05 | 18.43518 | -69.98466 | 1321 ft | 116 kts | 234° |
| 2026-05-07 22:05 | 18.43145 | -69.99124 | 1416 ft | 101 kts | 235° |
| 2026-05-07 22:05 | 18.42794 | -69.99807 | 1469 ft | 112 kts | 237° |
| 2026-05-07 22:05 | 18.42449 | -70.00526 | 1498 ft | 108 kts | 237° |
| 2026-05-07 22:06 | 18.42120 | -70.01246 | 1498 ft | 109 kts | 238° |
| 2026-05-07 22:06 | 18.41803 | -70.01994 | 1496 ft | 120 kts | 240° |
| 2026-05-07 22:06 | 18.41485 | -70.02800 | 1512 ft | 119 kts | 243° |
| 2026-05-07 22:06 | 18.41181 | -70.03615 | 1530 ft | 120 kts | 245° |
| 2026-05-07 22:07 | 18.40892 | -70.04437 | 1535 ft | 120 kts | 248° |
| 2026-05-07 22:07 | 18.40622 | -70.05249 | 1528 ft | 116 kts | 248° |
| 2026-05-07 22:07 | 18.40357 | -70.06063 | 1530 ft | 116 kts | 243° |
| 2026-05-07 22:07 | 18.39845 | -70.06668 | 1532 ft | 110 kts | 209° |
| 2026-05-07 22:08 | 18.39196 | -70.07110 | 1534 ft | 112 kts | 208° |
| 2026-05-07 22:08 | 18.38556 | -70.07546 | 1512 ft | 112 kts | 211° |
| 2026-05-07 22:08 | 18.37903 | -70.08014 | 1528 ft | 114 kts | 209° |
| 2026-05-07 22:08 | 18.37248 | -70.08491 | 1529 ft | 116 kts | 208° |
| 2026-05-07 22:09 | 18.36581 | -70.08991 | 1523 ft | 119 kts | 212° |
| 2026-05-07 22:09 | 18.35934 | -70.09505 | 1554 ft | 110 kts | 210° |
| 2026-05-07 22:09 | 18.35332 | -70.09985 | 1531 ft | 112 kts | 210° |
| 2026-05-07 22:09 | 18.34685 | -70.10412 | 1539 ft | 106 kts | 202° |
| 2026-05-07 22:10 | 18.34034 | -70.10734 | 1524 ft | 103 kts | 197° |
| 2026-05-07 22:10 | 18.33363 | -70.11056 | 1522 ft | 109 kts | 197° |
| 2026-05-07 22:10 | 18.32680 | -70.11383 | 1539 ft | 105 kts | 194° |
| 2026-05-07 22:10 | 18.32017 | -70.11696 | 1524 ft | 104 kts | 195° |
| 2026-05-07 22:11 | 18.31344 | -70.12018 | 1527 ft | 107 kts | 196° |
| 2026-05-07 22:11 | 18.30669 | -70.12339 | 1471 ft | 105 kts | 198° |
| 2026-05-07 22:11 | 18.30004 | -70.12646 | 1246 ft | 106 kts | 197° |
| 2026-05-07 22:11 | 18.29320 | -70.12857 | 1023 ft | 100 kts | 186° |
| 2026-05-07 22:12 | 18.28638 | -70.12996 | 813 ft | 99 kts | 183° |
| 2026-05-07 22:12 | 18.27976 | -70.13126 | 613 ft | 95 kts | 184° |
| 2026-05-07 22:12 | 18.27325 | -70.13262 | 633 ft | 98 kts | 187° |
| 2026-05-07 22:12 | 18.26698 | -70.13490 | 787 ft | 96 kts | 205° |
| 2026-05-07 22:13 | 18.26092 | -70.13871 | 803 ft | 104 kts | 204° |
| 2026-05-07 22:13 | 18.25467 | -70.14279 | 745 ft | 109 kts | 210° |
| 2026-05-07 22:13 | 18.24936 | -70.14868 | 646 ft | 111 kts | 225° |
| 2026-05-07 22:13 | 18.24451 | -70.15449 | 589 ft | 102 kts | 222° |
| 2026-05-07 22:14 | 18.23898 | -70.15959 | 453 ft | 112 kts | 206° |
| 2026-05-07 22:14 | 18.23372 | -70.16474 | 452 ft | 103 kts | 248° |
| 2026-05-07 22:14 | 18.23553 | -70.17154 | 507 ft | 94 kts | 298° |
| 2026-05-07 22:14 | 18.23998 | -70.17451 | 504 ft | 66 kts | 34° |
| 2026-05-07 22:15 | 18.24219 | -70.17173 | 489 ft | 46 kts | 80° |
| 2026-05-07 22:15 | 18.24312 | -70.16860 | 380 ft | 41 kts | 102° |
| 2026-05-07 22:15 | 18.24285 | -70.16591 | 360 ft | 35 kts | 114° |
| 2026-05-07 22:15 | 18.24208 | -70.16398 | 322 ft | 23 kts | 138° |
| 2026-05-07 22:16 | 18.24099 | -70.16297 | 282 ft | 20 kts | 146° |
| 2026-05-07 22:16 | 18.23988 | -70.16206 | 220 ft | 21 kts | 143° |
| 2026-05-07 22:16 | 18.23898 | -70.16129 | 152 ft | 10 kts | 121° |
| 2026-05-07 22:16 | 18.23867 | -70.16087 | 103 ft | 2 kts | 117° |
| 2026-05-07 22:17 | 18.23863 | -70.16071 | 72 ft | 1 kts | 118° |
| 2026-05-07 22:17 | 18.23863 | -70.16070 | 71 ft | 0 kts | 117° |
| 2026-05-07 22:23 | 18.23858 | -70.16071 | 116 ft | 4 kts | 117° |
| 2026-05-07 22:23 | 18.23885 | -70.16002 | 191 ft | 33 kts | 87° |
| 2026-05-07 22:23 | 18.24184 | -70.15784 | 350 ft | 69 kts | 36° |
| 2026-05-07 22:24 | 18.24588 | -70.15440 | 558 ft | 80 kts | 49° |
| 2026-05-07 22:24 | 18.25046 | -70.15047 | 589 ft | 87 kts | 45° |
| 2026-05-07 22:24 | 18.25550 | -70.14652 | 576 ft | 97 kts | 43° |
| 2026-05-07 22:24 | 18.26105 | -70.14169 | 559 ft | 107 kts | 45° |
| 2026-05-07 22:25 | 18.26653 | -70.13652 | 663 ft | 106 kts | 51° |
| 2026-05-07 22:25 | 18.27142 | -70.13149 | 878 ft | 92 kts | 53° |
| 2026-05-07 22:25 | 18.27580 | -70.12654 | 1067 ft | 94 kts | 58° |
| 2026-05-07 22:25 | 18.27993 | -70.12116 | 1276 ft | 93 kts | 60° |
| 2026-05-07 22:26 | 18.28364 | -70.11577 | 1472 ft | 92 kts | 62° |
| 2026-05-07 22:26 | 18.28706 | -70.11003 | 1673 ft | 91 kts | 66° |
| 2026-05-07 22:26 | 18.29002 | -70.10432 | 1865 ft | 90 kts | 68° |
| 2026-05-07 22:26 | 18.29267 | -70.09832 | 2059 ft | 89 kts | 72° |
| 2026-05-07 22:27 | 18.29493 | -70.09238 | 2232 ft | 86 kts | 74° |
| 2026-05-07 22:27 | 18.29701 | -70.08645 | 2114 ft | 85 kts | 73° |
| 2026-05-07 22:27 | 18.29923 | -70.08060 | 1933 ft | 88 kts | 72° |
| 2026-05-07 22:27 | 18.30224 | -70.07517 | 1746 ft | 91 kts | 47° |
| 2026-05-07 22:28 | 18.30813 | -70.07229 | 1620 ft | 95 kts | 26° |
| 2026-05-07 22:28 | 18.31457 | -70.07001 | 1569 ft | 101 kts | 27° |
| 2026-05-07 22:28 | 18.32167 | -70.06744 | 1559 ft | 110 kts | 23° |
| 2026-05-07 22:28 | 18.32807 | -70.06374 | 1539 ft | 102 kts | 38° |
| 2026-05-07 22:29 | 18.33402 | -70.05963 | 1536 ft | 103 kts | 40° |
| 2026-05-07 22:29 | 18.34004 | -70.05526 | 1532 ft | 105 kts | 40° |
| 2026-05-07 22:29 | 18.34597 | -70.05079 | 1533 ft | 104 kts | 43° |
| 2026-05-07 22:29 | 18.35177 | -70.04629 | 1529 ft | 106 kts | 44° |
| 2026-05-07 22:30 | 18.35760 | -70.04144 | 1527 ft | 107 kts | 48° |
| 2026-05-07 22:30 | 18.36311 | -70.03641 | 1533 ft | 102 kts | 47° |
| 2026-05-07 22:30 | 18.36843 | -70.03134 | 1527 ft | 105 kts | 51° |
| 2026-05-07 22:30 | 18.37392 | -70.02604 | 1521 ft | 110 kts | 46° |
| 2026-05-07 22:31 | 18.37957 | -70.02059 | 1536 ft | 110 kts | 45° |
| 2026-05-07 22:31 | 18.38520 | -70.01519 | 1529 ft | 110 kts | 49° |
| 2026-05-07 22:31 | 18.39078 | -70.00983 | 1530 ft | 107 kts | 47° |
| 2026-05-07 22:31 | 18.39632 | -70.00447 | 1529 ft | 109 kts | 45° |
| 2026-05-07 22:32 | 18.40192 | -69.99917 | 1330 ft | 107 kts | 49° |
| 2026-05-07 22:32 | 18.40740 | -69.99402 | 1142 ft | 108 kts | 47° |
| 2026-05-07 22:32 | 18.41294 | -69.98878 | 1053 ft | 108 kts | 48° |
| 2026-05-07 22:32 | 18.41844 | -69.98350 | 1012 ft | 106 kts | 48° |
| 2026-05-07 22:33 | 18.42368 | -69.97798 | 1009 ft | 107 kts | 52° |
| 2026-05-07 22:33 | 18.42881 | -69.97209 | 1025 ft | 114 kts | 56° |
| 2026-05-07 22:33 | 18.43432 | -69.96569 | 830 ft | 120 kts | 53° |
| 2026-05-07 22:33 | 18.43942 | -69.95928 | 830 ft | 107 kts | 54° |
| 2026-05-07 22:34 | 18.44263 | -69.95274 | 811 ft | 95 kts | 72° |
| 2026-05-07 22:34 | 18.44517 | -69.94677 | 815 ft | 89 kts | 68° |
| 2026-05-07 22:34 | 18.44871 | -69.94158 | 770 ft | 86 kts | 54° |
| 2026-05-07 22:34 | 18.45278 | -69.93685 | 708 ft | 86 kts | 50° |
| 2026-05-07 22:35 | 18.45559 | -69.93189 | 708 ft | 74 kts | 95° |
| 2026-05-07 22:35 | 18.45361 | -69.92684 | 619 ft | 80 kts | 123° |
| 2026-05-07 22:35 | 18.45073 | -69.92177 | 497 ft | 82 kts | 123° |
| 2026-05-07 22:35 | 18.45150 | -69.91699 | 575 ft | 76 kts | 36° |
| 2026-05-07 22:36 | 18.45660 | -69.91761 | 542 ft | 79 kts | 343° |
| 2026-05-07 22:36 | 18.46084 | -69.92066 | 483 ft | 73 kts | 311° |
| 2026-05-07 22:36 | 18.46243 | -69.92495 | 459 ft | 61 kts | 245° |
| 2026-05-07 22:36 | 18.45977 | -69.92738 | 472 ft | 49 kts | 193° |
| 2026-05-07 22:37 | 18.45650 | -69.92846 | 357 ft | 44 kts | 191° |
| 2026-05-07 22:37 | 18.45354 | -69.92854 | 298 ft | 45 kts | 166° |
| 2026-05-07 22:37 | 18.45105 | -69.92750 | 157 ft | 27 kts | 160° |
| 2026-05-07 22:37 | 18.44991 | -69.92678 | 114 ft | 15 kts | 161° |
| 2026-05-07 22:38 | 18.44925 | -69.92635 | 80 ft | 8 kts | 162° |
| 2026-05-07 22:38 | 18.44890 | -69.92618 | 57 ft | 3 kts | 163° |
| 2026-05-07 22:38 | 18.44885 | -69.92615 | 44 ft | 0 kts | 161° |
| 2026-05-07 22:48 | 18.44880 | -69.92620 | 61 ft | 2 kts | 127° |
| 2026-05-07 22:49 | 18.44878 | -69.92598 | 119 ft | 6 kts | 328° |
| 2026-05-07 22:49 | 18.44998 | -69.92627 | 193 ft | 29 kts | 323° |
| 2026-05-07 22:49 | 18.45249 | -69.92824 | 431 ft | 57 kts | 313° |
| 2026-05-07 22:49 | 18.45597 | -69.93145 | 665 ft | 77 kts | 311° |
| 2026-05-07 22:50 | 18.46089 | -69.93483 | 801 ft | 95 kts | 333° |
| 2026-05-07 22:50 | 18.46716 | -69.93734 | 882 ft | 100 kts | 338° |
| 2026-05-07 22:50 | 18.47415 | -69.94015 | 869 ft | 112 kts | 337° |
| 2026-05-07 22:50 | 18.48149 | -69.94301 | 856 ft | 112 kts | 341° |
| 2026-05-07 22:51 | 18.48889 | -69.94535 | 890 ft | 112 kts | 344° |
| 2026-05-07 22:51 | 18.49610 | -69.94785 | 924 ft | 105 kts | 340° |
| 2026-05-07 22:51 | 18.50224 | -69.95202 | 982 ft | 109 kts | 314° |
| 2026-05-07 22:51 | 18.50756 | -69.95788 | 902 ft | 111 kts | 313° |
| 2026-05-07 22:52 | 18.51307 | -69.96364 | 951 ft | 113 kts | 313° |
| 2026-05-07 22:52 | 18.51850 | -69.96966 | 978 ft | 114 kts | 313° |
| 2026-05-07 22:52 | 18.52399 | -69.97558 | 1032 ft | 113 kts | 313° |
| 2026-05-07 22:52 | 18.52943 | -69.98153 | 984 ft | 115 kts | 313° |
| 2026-05-07 22:53 | 18.53532 | -69.98713 | 906 ft | 113 kts | 323° |
| 2026-05-07 22:53 | 18.54175 | -69.99173 | 977 ft | 109 kts | 329° |
| 2026-05-07 22:53 | 18.54834 | -69.99518 | 1099 ft | 103 kts | 342° |
| 2026-05-07 22:53 | 18.55539 | -69.99694 | 1185 ft | 105 kts | 353° |
| 2026-05-07 22:54 | 18.56265 | -69.99795 | 1316 ft | 107 kts | 1° |
| 2026-05-07 22:54 | 18.57014 | -69.99837 | 1364 ft | 111 kts | 359° |
| 2026-05-07 22:54 | 18.57801 | -69.99890 | 1473 ft | 108 kts | 359° |
| 2026-05-07 22:54 | 18.58561 | -69.99955 | 1496 ft | 116 kts | 357° |
| 2026-05-07 22:55 | 18.59397 | -70.00034 | 1343 ft | 122 kts | 1° |
| 2026-05-07 22:55 | 18.60012 | -69.99583 | 1169 ft | 106 kts | 83° |
| 2026-05-07 22:55 | 18.59697 | -69.99007 | 1028 ft | 90 kts | 140° |
| 2026-05-07 22:55 | 18.59221 | -69.98569 | 889 ft | 88 kts | 147° |
| 2026-05-07 22:56 | 18.58765 | -69.98240 | 689 ft | 71 kts | 150° |
| 2026-05-07 22:56 | 18.58426 | -69.98041 | 432 ft | 41 kts | 159° |
| 2026-05-07 22:56 | 18.58225 | -69.97946 | 299 ft | 28 kts | 163° |
| 2026-05-07 22:56 | 18.58044 | -69.97894 | 181 ft | 23 kts | 182° |
| 2026-05-07 22:57 | 18.57951 | -69.97905 | 103 ft | 3 kts | 186° |
| 2026-05-07 22:57 | 18.57928 | -69.97907 | 83 ft | 1 kts | 212° |
| 2026-05-07 22:57 | 18.57924 | -69.97912 | 75 ft | 2 kts | 204° |
| 2026-05-07 23:02 | 18.57923 | -69.97914 | 86 ft | 2 kts | 206° |
| 2026-05-07 23:02 | 18.57923 | -69.97959 | 95 ft | 9 kts | 308° |
| 2026-05-07 23:03 | 18.57981 | -69.98000 | 91 ft | 13 kts | 275° |
| 2026-05-07 23:03 | 18.57992 | -69.98093 | 92 ft | 10 kts | 275° |
| 2026-05-07 23:03 | 18.57996 | -69.98155 | 90 ft | 9 kts | 278° |
| 2026-05-07 23:03 | 18.57993 | -69.98174 | 76 ft | 0 kts | 277° |
| 2026-05-07 23:04 | 18.57995 | -69.98177 | 79 ft | 3 kts | 271° |
| 2026-05-07 23:04 | 18.57986 | -69.98204 | 92 ft | 5 kts | 213° |
| 2026-05-07 23:04 | 18.57958 | -69.98217 | 89 ft | 6 kts | 206° |
| 2026-05-07 23:04 | 18.57946 | -69.98279 | 85 ft | 9 kts | 273° |
| 2026-05-07 23:05 | 18.57952 | -69.98351 | 87 ft | 9 kts | 272° |
| 2026-05-07 23:05 | 18.57961 | -69.98421 | 87 ft | 9 kts | 272° |
| 2026-05-07 23:05 | 18.57956 | -69.98473 | 85 ft | 2 kts | 209° |
| 2026-05-07 23:05 | 18.57944 | -69.98484 | 74 ft | 0 kts | 194° |
| 2026-05-07 23:06 | 18.57945 | -69.98484 | 73 ft | 0 kts | 195° |
| 2026-05-07 23:06 | 18.57930 | -69.98490 | 86 ft | 9 kts | 197° |
| 2026-05-07 23:06 | 18.57750 | -69.98511 | 124 ft | 42 kts | 184° |
| 2026-05-07 23:06 | 18.57379 | -69.98551 | 162 ft | 65 kts | 185° |
| 2026-05-07 23:07 | 18.56998 | -69.98274 | 276 ft | 82 kts | 110° |
| 2026-05-07 23:07 | 18.57026 | -69.97635 | 466 ft | 93 kts | 91° |
| 2026-05-07 23:07 | 18.57127 | -69.96947 | 639 ft | 98 kts | 84° |
| 2026-05-07 23:07 | 18.57201 | -69.96228 | 665 ft | 98 kts | 89° |
| 2026-05-07 23:08 | 18.57259 | -69.95510 | 755 ft | 98 kts | 90° |
| 2026-05-07 23:08 | 18.57291 | -69.94787 | 834 ft | 100 kts | 90° |
| 2026-05-07 23:08 | 18.57294 | -69.94032 | 836 ft | 104 kts | 94° |
| 2026-05-07 23:08 | 18.57277 | -69.93266 | 834 ft | 106 kts | 95° |
| 2026-05-07 23:09 | 18.57236 | -69.92486 | 838 ft | 108 kts | 99° |
| 2026-05-07 23:09 | 18.57179 | -69.91715 | 839 ft | 102 kts | 97° |
| 2026-05-07 23:09 | 18.57110 | -69.90951 | 843 ft | 106 kts | 100° |
| 2026-05-07 23:09 | 18.57037 | -69.90197 | 830 ft | 103 kts | 101° |
| 2026-05-07 23:10 | 18.56953 | -69.89451 | 841 ft | 103 kts | 101° |
| 2026-05-07 23:10 | 18.56862 | -69.88698 | 832 ft | 105 kts | 102° |
| 2026-05-07 23:10 | 18.56799 | -69.87941 | 834 ft | 104 kts | 90° |
| 2026-05-07 23:10 | 18.56876 | -69.87166 | 838 ft | 104 kts | 86° |
| 2026-05-07 23:11 | 18.56912 | -69.86410 | 833 ft | 105 kts | 91° |
| 2026-05-07 23:11 | 18.56956 | -69.85680 | 829 ft | 96 kts | 92° |
| 2026-05-07 23:11 | 18.56998 | -69.84993 | 828 ft | 95 kts | 93° |
| 2026-05-07 23:11 | 18.57039 | -69.84299 | 832 ft | 95 kts | 92° |
| 2026-05-07 23:12 | 18.57080 | -69.83571 | 828 ft | 102 kts | 91° |
| 2026-05-07 23:12 | 18.57121 | -69.82851 | 834 ft | 94 kts | 92° |
| 2026-05-07 23:12 | 18.57163 | -69.82161 | 833 ft | 98 kts | 92° |
| 2026-05-07 23:12 | 18.57205 | -69.81443 | 826 ft | 98 kts | 92° |
| 2026-05-07 23:13 | 18.57196 | -69.80744 | 834 ft | 94 kts | 96° |
| 2026-05-07 23:13 | 18.57164 | -69.80024 | 837 ft | 98 kts | 98° |
| 2026-05-07 23:13 | 18.57131 | -69.79302 | 834 ft | 99 kts | 95° |
| 2026-05-07 23:13 | 18.57130 | -69.78595 | 839 ft | 96 kts | 95° |
| 2026-05-07 23:14 | 18.57148 | -69.77893 | 838 ft | 97 kts | 92° |
| 2026-05-07 23:14 | 18.57168 | -69.77177 | 845 ft | 98 kts | 92° |
| 2026-05-07 23:14 | 18.57184 | -69.76478 | 840 ft | 93 kts | 100° |
| 2026-05-07 23:14 | 18.57074 | -69.75779 | 834 ft | 98 kts | 105° |
| 2026-05-07 23:15 | 18.56669 | -69.75310 | 830 ft | 102 kts | 177° |
| 2026-05-07 23:15 | 18.56184 | -69.75913 | 841 ft | 122 kts | 243° |
| 2026-05-07 23:15 | 18.55840 | -69.76699 | 838 ft | 114 kts | 240° |
| 2026-05-07 23:15 | 18.55619 | -69.77471 | 739 ft | 109 kts | 277° |
| 2026-05-07 23:16 | 18.56164 | -69.77911 | 521 ft | 98 kts | 20° |
| 2026-05-07 23:16 | 18.56409 | -69.77413 | 483 ft | 80 kts | 120° |
| 2026-05-07 23:16 | 18.56244 | -69.76940 | 493 ft | 60 kts | 101° |
| 2026-05-07 23:16 | 18.56326 | -69.76578 | 461 ft | 48 kts | 74° |
| 2026-05-07 23:17 | 18.56485 | -69.76260 | 353 ft | 50 kts | 72° |
| 2026-05-07 23:17 | 18.56618 | -69.75938 | 242 ft | 46 kts | 77° |
| 2026-05-07 23:17 | 18.56715 | -69.75774 | 148 ft | 10 kts | 60° |
| 2026-05-07 23:17 | 18.56736 | -69.75757 | 108 ft | 1 kts | 34° |
| 2026-05-07 23:18 | 18.56737 | -69.75756 | 104 ft | 0 kts | 34° |
| 2026-05-07 23:24 | 18.56737 | -69.75758 | 106 ft | 0 kts | 141° |
| 2026-05-07 23:24 | 18.56729 | -69.75754 | 118 ft | 7 kts | 144° |
| 2026-05-07 23:25 | 18.56588 | -69.75597 | 283 ft | 48 kts | 133° |
| 2026-05-07 23:25 | 18.56347 | -69.75218 | 487 ft | 74 kts | 104° |
| 2026-05-07 23:25 | 18.56676 | -69.74738 | 645 ft | 98 kts | 24° |
| 2026-05-07 23:25 | 18.57371 | -69.74962 | 738 ft | 116 kts | 318° |
| 2026-05-07 23:26 | 18.57911 | -69.75660 | 753 ft | 128 kts | 304° |
| 2026-05-07 23:26 | 18.58439 | -69.76412 | 790 ft | 131 kts | 302° |
| 2026-05-07 23:26 | 18.58958 | -69.77230 | 905 ft | 137 kts | 304° |
| 2026-05-07 23:26 | 18.59496 | -69.78002 | 1211 ft | 117 kts | 307° |
| 2026-05-07 23:27 | 18.60485 | -69.79273 | 1678 ft | 115 kts | 312° |
| 2026-05-07 23:27 | 18.61016 | -69.79906 | 1898 ft | 115 kts | 312° |
| 2026-05-07 23:27 | 18.61544 | -69.80525 | 2001 ft | 115 kts | 313° |
| 2026-05-07 23:28 | 18.62076 | -69.81141 | 2048 ft | 112 kts | 313° |
| 2026-05-07 23:28 | 18.62615 | -69.81755 | 2061 ft | 118 kts | 314° |
| 2026-05-07 23:28 | 18.63179 | -69.82387 | 2073 ft | 119 kts | 315° |
| 2026-05-07 23:28 | 18.63793 | -69.83055 | 2079 ft | 130 kts | 315° |
| 2026-05-07 23:29 | 18.64413 | -69.83730 | 2083 ft | 127 kts | 315° |
| 2026-05-07 23:29 | 18.65034 | -69.84401 | 2084 ft | 128 kts | 315° |
| 2026-05-07 23:29 | 18.65658 | -69.85071 | 2086 ft | 128 kts | 315° |
| 2026-05-07 23:29 | 18.66273 | -69.85730 | 2087 ft | 127 kts | 316° |
| 2026-05-07 23:30 | 18.66898 | -69.86394 | 2083 ft | 128 kts | 315° |
| 2026-05-07 23:30 | 18.67506 | -69.87041 | 2084 ft | 122 kts | 315° |
| 2026-05-07 23:30 | 18.68105 | -69.87673 | 2076 ft | 123 kts | 313° |
| 2026-05-07 23:30 | 18.68715 | -69.88313 | 2068 ft | 127 kts | 314° |
| 2026-05-07 23:31 | 18.69343 | -69.88977 | 2072 ft | 127 kts | 314° |
| 2026-05-07 23:31 | 18.69965 | -69.89640 | 2067 ft | 126 kts | 314° |
| 2026-05-07 23:31 | 18.70581 | -69.90296 | 2061 ft | 127 kts | 314° |
| 2026-05-07 23:31 | 18.70997 | -69.90736 | 2063 ft | 127 kts | 314° |
| 2026-05-07 23:32 | 18.71825 | -69.91614 | 2062 ft | 126 kts | 314° |
| 2026-05-07 23:32 | 18.72235 | -69.92048 | 2062 ft | 126 kts | 314° |
| 2026-05-07 23:32 | 18.72857 | -69.92705 | 2060 ft | 128 kts | 314° |
| 2026-05-07 23:32 | 18.73450 | -69.93336 | 2068 ft | 111 kts | 314° |
| 2026-05-07 23:33 | 18.73990 | -69.93907 | 2129 ft | 111 kts | 315° |
| 2026-05-07 23:33 | 18.74555 | -69.94480 | 2371 ft | 114 kts | 314° |
| 2026-05-07 23:33 | 18.75118 | -69.95055 | 2582 ft | 113 kts | 312° |
| 2026-05-07 23:33 | 18.75662 | -69.95635 | 2546 ft | 109 kts | 312° |
| 2026-05-07 23:34 | 18.76210 | -69.96221 | 2522 ft | 118 kts | 313° |
| 2026-05-07 23:34 | 18.76792 | -69.96838 | 2523 ft | 116 kts | 313° |
| 2026-05-07 23:34 | 18.77358 | -69.97440 | 2509 ft | 116 kts | 314° |
| 2026-05-07 23:34 | 18.77951 | -69.98068 | 2509 ft | 122 kts | 314° |
| 2026-05-07 23:35 | 18.78573 | -69.98721 | 2513 ft | 130 kts | 312° |
| 2026-05-07 23:35 | 18.79193 | -69.99380 | 2511 ft | 125 kts | 311° |
| 2026-05-07 23:35 | 18.79812 | -70.00038 | 2509 ft | 127 kts | 313° |
| 2026-05-07 23:35 | 18.80449 | -70.00710 | 2509 ft | 129 kts | 313° |
| 2026-05-07 23:36 | 18.81070 | -70.01370 | 2510 ft | 123 kts | 313° |
| 2026-05-07 23:36 | 18.81680 | -70.02015 | 2504 ft | 127 kts | 314° |
| 2026-05-07 23:36 | 18.82306 | -70.02676 | 2508 ft | 127 kts | 314° |
| 2026-05-07 23:36 | 18.82915 | -70.03321 | 2501 ft | 125 kts | 314° |
| 2026-05-07 23:37 | 18.83535 | -70.03974 | 2500 ft | 128 kts | 314° |
| 2026-05-07 23:37 | 18.84173 | -70.04643 | 2509 ft | 129 kts | 314° |
| 2026-05-07 23:37 | 18.84806 | -70.05310 | 2509 ft | 126 kts | 313° |
| 2026-05-07 23:37 | 18.85418 | -70.05956 | 2504 ft | 127 kts | 313° |
| 2026-05-07 23:38 | 18.86040 | -70.06615 | 2506 ft | 126 kts | 313° |
| 2026-05-07 23:38 | 18.86657 | -70.07267 | 2504 ft | 125 kts | 313° |
| 2026-05-07 23:38 | 18.87274 | -70.07912 | 2499 ft | 126 kts | 314° |
| 2026-05-07 23:38 | 18.87901 | -70.08567 | 2512 ft | 126 kts | 313° |
| 2026-05-07 23:39 | 18.88519 | -70.09220 | 2504 ft | 126 kts | 314° |
| 2026-05-07 23:39 | 18.89142 | -70.09876 | 2501 ft | 126 kts | 314° |
| 2026-05-07 23:39 | 18.89762 | -70.10531 | 2509 ft | 128 kts | 314° |
| 2026-05-07 23:39 | 18.90385 | -70.11194 | 2510 ft | 125 kts | 315° |
| 2026-05-07 23:40 | 18.91001 | -70.11849 | 2507 ft | 127 kts | 314° |
| 2026-05-07 23:40 | 18.91629 | -70.12513 | 2506 ft | 127 kts | 314° |
| 2026-05-07 23:40 | 18.92247 | -70.13169 | 2509 ft | 125 kts | 314° |
| 2026-05-07 23:40 | 18.92861 | -70.13817 | 2506 ft | 125 kts | 314° |
| 2026-05-07 23:41 | 18.93477 | -70.14467 | 2510 ft | 127 kts | 313° |
| 2026-05-07 23:41 | 18.94094 | -70.15123 | 2506 ft | 125 kts | 314° |
| 2026-05-07 23:41 | 18.94718 | -70.15784 | 2505 ft | 128 kts | 314° |
| 2026-05-07 23:41 | 18.95346 | -70.16450 | 2506 ft | 127 kts | 312° |
| 2026-05-07 23:42 | 18.95964 | -70.17103 | 2506 ft | 126 kts | 313° |
| 2026-05-07 23:42 | 18.96593 | -70.17756 | 2504 ft | 127 kts | 315° |
| 2026-05-07 23:42 | 18.97218 | -70.18416 | 2502 ft | 126 kts | 315° |
| 2026-05-07 23:42 | 18.97848 | -70.19073 | 2499 ft | 127 kts | 315° |
| 2026-05-07 23:43 | 18.98444 | -70.19713 | 2507 ft | 119 kts | 313° |
| 2026-05-07 23:43 | 18.99035 | -70.20345 | 2542 ft | 121 kts | 315° |
| 2026-05-07 23:43 | 18.99599 | -70.20954 | 2521 ft | 114 kts | 316° |
| 2026-05-07 23:43 | 19.00167 | -70.21558 | 2517 ft | 115 kts | 316° |
| 2026-05-07 23:44 | 19.00734 | -70.22160 | 2513 ft | 116 kts | 316° |
| 2026-05-07 23:44 | 19.01307 | -70.22768 | 2512 ft | 117 kts | 315° |
| 2026-05-07 23:44 | 19.01869 | -70.23366 | 2510 ft | 116 kts | 316° |
| 2026-05-07 23:44 | 19.02441 | -70.23972 | 2509 ft | 117 kts | 316° |
| 2026-05-07 23:45 | 19.03015 | -70.24581 | 2510 ft | 116 kts | 316° |
| 2026-05-07 23:45 | 19.03576 | -70.25179 | 2511 ft | 115 kts | 315° |
| 2026-05-07 23:45 | 19.04142 | -70.25781 | 2475 ft | 118 kts | 320° |
| 2026-05-07 23:45 | 19.04770 | -70.26433 | 2494 ft | 128 kts | 318° |
| 2026-05-07 23:46 | 19.05395 | -70.27097 | 2501 ft | 127 kts | 318° |
| 2026-05-07 23:46 | 19.06019 | -70.27760 | 2506 ft | 126 kts | 317° |
| 2026-05-07 23:46 | 19.06629 | -70.28409 | 2503 ft | 125 kts | 317° |
| 2026-05-07 23:46 | 19.07240 | -70.29060 | 2510 ft | 123 kts | 317° |
| 2026-05-07 23:47 | 19.07845 | -70.29703 | 2509 ft | 123 kts | 317° |
| 2026-05-07 23:47 | 19.08454 | -70.30349 | 2507 ft | 124 kts | 317° |
| 2026-05-07 23:47 | 19.09066 | -70.30998 | 2511 ft | 125 kts | 317° |
| 2026-05-07 23:47 | 19.09678 | -70.31650 | 2506 ft | 124 kts | 316° |
| 2026-05-07 23:48 | 19.10284 | -70.32298 | 2508 ft | 124 kts | 316° |
| 2026-05-07 23:48 | 19.10885 | -70.32938 | 2508 ft | 124 kts | 316° |
| 2026-05-07 23:48 | 19.11498 | -70.33592 | 2506 ft | 125 kts | 316° |
| 2026-05-07 23:48 | 19.12114 | -70.34249 | 2506 ft | 124 kts | 316° |
| 2026-05-07 23:49 | 19.12713 | -70.34888 | 2502 ft | 124 kts | 317° |
| 2026-05-07 23:49 | 19.13324 | -70.35537 | 2506 ft | 125 kts | 318° |
| 2026-05-07 23:49 | 19.13943 | -70.36194 | 2502 ft | 126 kts | 317° |
| 2026-05-07 23:49 | 19.14567 | -70.36854 | 2500 ft | 128 kts | 317° |
| 2026-05-07 23:50 | 19.15189 | -70.37513 | 2505 ft | 127 kts | 316° |
| 2026-05-07 23:50 | 19.15814 | -70.38178 | 2505 ft | 127 kts | 316° |
| 2026-05-07 23:50 | 19.16439 | -70.38842 | 2500 ft | 127 kts | 316° |
| 2026-05-07 23:50 | 19.17061 | -70.39503 | 2498 ft | 126 kts | 316° |
| 2026-05-07 23:51 | 19.17683 | -70.40164 | 2502 ft | 127 kts | 316° |
| 2026-05-07 23:51 | 19.18306 | -70.40824 | 2512 ft | 127 kts | 316° |
| 2026-05-07 23:51 | 19.18925 | -70.41479 | 2511 ft | 130 kts | 317° |
| 2026-05-07 23:51 | 19.19567 | -70.42155 | 2521 ft | 129 kts | 317° |
| 2026-05-07 23:52 | 19.20203 | -70.42829 | 2521 ft | 129 kts | 317° |
| 2026-05-07 23:52 | 19.20839 | -70.43504 | 2522 ft | 129 kts | 317° |
| 2026-05-07 23:52 | 19.21464 | -70.44169 | 2522 ft | 129 kts | 317° |
| 2026-05-07 23:52 | 19.22099 | -70.44844 | 2522 ft | 129 kts | 317° |
| 2026-05-07 23:53 | 19.22735 | -70.45521 | 2522 ft | 129 kts | 317° |
| 2026-05-07 23:53 | 19.23373 | -70.46202 | 2520 ft | 130 kts | 317° |
| 2026-05-07 23:53 | 19.24000 | -70.46871 | 2520 ft | 129 kts | 317° |
| 2026-05-07 23:53 | 19.24634 | -70.47547 | 2521 ft | 129 kts | 317° |
| 2026-05-07 23:54 | 19.25265 | -70.48220 | 2520 ft | 129 kts | 316° |
| 2026-05-07 23:54 | 19.25900 | -70.48896 | 2515 ft | 129 kts | 315° |
| 2026-05-07 23:54 | 19.26535 | -70.49573 | 2514 ft | 129 kts | 315° |
| 2026-05-07 23:54 | 19.27164 | -70.50243 | 2513 ft | 130 kts | 315° |
| 2026-05-07 23:55 | 19.27803 | -70.50922 | 2512 ft | 130 kts | 316° |
| 2026-05-07 23:55 | 19.28441 | -70.51600 | 2512 ft | 129 kts | 316° |
| 2026-05-07 23:55 | 19.29085 | -70.52282 | 2511 ft | 131 kts | 316° |
| 2026-05-07 23:55 | 19.29726 | -70.52963 | 2512 ft | 131 kts | 316° |
| 2026-05-07 23:56 | 19.30371 | -70.53650 | 2508 ft | 131 kts | 316° |
| 2026-05-07 23:56 | 19.31008 | -70.54335 | 2496 ft | 126 kts | 315° |
| 2026-05-07 23:56 | 19.31612 | -70.54989 | 2431 ft | 124 kts | 316° |
| 2026-05-07 23:56 | 19.32211 | -70.55632 | 2376 ft | 124 kts | 316° |
| 2026-05-07 23:57 | 19.32813 | -70.56281 | 2316 ft | 123 kts | 316° |
| 2026-05-07 23:57 | 19.33414 | -70.56927 | 2185 ft | 123 kts | 316° |
| 2026-05-07 23:57 | 19.34010 | -70.57569 | 2093 ft | 123 kts | 317° |
| 2026-05-07 23:57 | 19.34608 | -70.58206 | 2048 ft | 123 kts | 317° |
| 2026-05-07 23:58 | 19.35220 | -70.58853 | 2030 ft | 125 kts | 316° |
| 2026-05-07 23:58 | 19.35831 | -70.59499 | 2022 ft | 123 kts | 315° |
| 2026-05-07 23:58 | 19.36429 | -70.60134 | 2017 ft | 122 kts | 316° |
| 2026-05-07 23:58 | 19.37022 | -70.60763 | 2016 ft | 122 kts | 315° |
| 2026-05-07 23:59 | 19.37625 | -70.61403 | 1969 ft | 122 kts | 315° |
| 2026-05-07 23:59 | 19.38217 | -70.62043 | 1820 ft | 120 kts | 315° |
| 2026-05-07 23:59 | 19.38796 | -70.62672 | 1651 ft | 118 kts | 316° |
| 2026-05-07 23:59 | 19.39381 | -70.63299 | 1545 ft | 121 kts | 316° |
| 2026-05-08 00:00 | 19.39968 | -70.63930 | 1357 ft | 121 kts | 316° |
| 2026-05-08 00:00 | 19.40557 | -70.64562 | 1209 ft | 119 kts | 316° |
| 2026-05-08 00:00 | 19.41135 | -70.65184 | 1093 ft | 118 kts | 316° |
| 2026-05-08 00:00 | 19.41697 | -70.65800 | 1110 ft | 109 kts | 321° |
| 2026-05-08 00:01 | 19.42209 | -70.66359 | 1211 ft | 109 kts | 318° |
| 2026-05-08 00:01 | 19.42709 | -70.66967 | 1239 ft | 110 kts | 316° |
| 2026-05-08 00:01 | 19.43203 | -70.67567 | 1209 ft | 105 kts | 316° |
| 2026-05-08 00:01 | 19.43650 | -70.68156 | 1238 ft | 101 kts | 310° |
| 2026-05-08 00:02 | 19.44018 | -70.68786 | 1255 ft | 98 kts | 311° |
| 2026-05-08 00:02 | 19.44489 | -70.69293 | 1252 ft | 97 kts | 324° |
| 2026-05-08 00:02 | 19.45014 | -70.69750 | 1136 ft | 98 kts | 329° |
| 2026-05-08 00:02 | 19.45607 | -70.70136 | 1125 ft | 101 kts | 338° |
| 2026-05-08 00:03 | 19.46128 | -70.70548 | 1095 ft | 93 kts | 296° |
| 2026-05-08 00:03 | 19.46389 | -70.71124 | 994 ft | 75 kts | 327° |
| 2026-05-08 00:03 | 19.46575 | -70.70939 | 750 ft | 61 kts | 134° |
| 2026-05-08 00:03 | 19.46325 | -70.70765 | 773 ft | 32 kts | 129° |
| 2026-05-08 00:04 | 19.46161 | -70.70618 | 759 ft | 32 kts | 118° |
| 2026-05-08 00:04 | 19.45994 | -70.70423 | 810 ft | 39 kts | 126° |
| 2026-05-08 00:04 | 19.45761 | -70.70244 | 786 ft | 32 kts | 114° |
| 2026-05-08 00:04 | 19.45681 | -70.70126 | 742 ft | 12 kts | 106° |
| 2026-05-08 00:05 | 19.45655 | -70.70061 | 689 ft | 9 kts | 107° |
| 2026-05-08 00:05 | 19.45642 | -70.70021 | 661 ft | 2 kts | 108° |
| 2026-05-08 00:05 | 19.45640 | -70.70014 | 656 ft | 0 kts | 108° |
| 2026-05-08 00:08 | 19.45640 | -70.70013 | 656 ft | 0 kts | 111° |
| 2026-05-08 00:11 | 19.45639 | -70.70014 | 657 ft | 0 kts | 71° |
| 2026-05-08 00:11 | 19.45632 | -70.70007 | 657 ft | 6 kts | 100° |
| 2026-05-08 00:12 | 19.45591 | -70.69843 | 929 ft | 41 kts | 93° |
| 2026-05-08 00:12 | 19.45306 | -70.69573 | 1021 ft | 60 kts | 127° |
| 2026-05-08 00:12 | 19.45038 | -70.69105 | 1051 ft | 80 kts | 114° |
| 2026-05-08 00:12 | 19.44748 | -70.68578 | 1108 ft | 81 kts | 120° |
| 2026-05-08 00:13 | 19.44420 | -70.68080 | 1154 ft | 85 kts | 125° |
| 2026-05-08 00:13 | 19.44037 | -70.67594 | 1219 ft | 89 kts | 128° |
| 2026-05-08 00:13 | 19.43599 | -70.67116 | 1276 ft | 93 kts | 127° |
| 2026-05-08 00:13 | 19.43137 | -70.66606 | 1326 ft | 98 kts | 129° |
| 2026-05-08 00:14 | 19.42636 | -70.66082 | 1325 ft | 105 kts | 134° |
| 2026-05-08 00:14 | 19.42115 | -70.65553 | 1265 ft | 104 kts | 125° |
| 2026-05-08 00:14 | 19.41685 | -70.64964 | 1227 ft | 99 kts | 118° |
| 2026-05-08 00:14 | 19.41407 | -70.64340 | 1208 ft | 89 kts | 99° |
| 2026-05-08 00:15 | 19.41314 | -70.63698 | 1154 ft | 87 kts | 98° |
| 2026-05-08 00:15 | 19.41187 | -70.63085 | 987 ft | 77 kts | 102° |
| 2026-05-08 00:15 | 19.41080 | -70.62675 | 885 ft | 48 kts | 102° |
| 2026-05-08 00:15 | 19.41024 | -70.62356 | 799 ft | 38 kts | 103° |
| 2026-05-08 00:16 | 19.40969 | -70.62114 | 752 ft | 27 kts | 104° |
| 2026-05-08 00:16 | 19.40925 | -70.61927 | 709 ft | 25 kts | 97° |
| 2026-05-08 00:16 | 19.40885 | -70.61754 | 649 ft | 24 kts | 95° |
| 2026-05-08 00:16 | 19.40849 | -70.61580 | 599 ft | 25 kts | 96° |
| 2026-05-08 00:17 | 19.40814 | -70.61412 | 599 ft | 24 kts | 94° |
| 2026-05-08 00:17 | 19.40772 | -70.61227 | 598 ft | 28 kts | 93° |
| 2026-05-08 00:17 | 19.40732 | -70.61032 | 596 ft | 27 kts | 94° |
| 2026-05-08 00:17 | 19.40689 | -70.60846 | 611 ft | 28 kts | 94° |
| 2026-05-08 00:18 | 19.40649 | -70.60653 | 594 ft | 26 kts | 94° |
| 2026-05-08 00:18 | 19.40614 | -70.60496 | 587 ft | 13 kts | 95° |
| 2026-05-08 00:18 | 19.40557 | -70.60421 | 590 ft | 19 kts | 200° |
| 2026-05-08 00:18 | 19.40447 | -70.60446 | 582 ft | 10 kts | 201° |
| 2026-05-08 00:19 | 19.40389 | -70.60446 | 589 ft | 8 kts | 168° |
| 2026-05-08 00:19 | 19.40345 | -70.60437 | 581 ft | 6 kts | 169° |
| 2026-05-08 00:19 | 19.40333 | -70.60435 | 574 ft | 2 kts | 179° |
| 2026-05-08 00:19 | 19.40332 | -70.60435 | 570 ft | 0 kts | 174° |
| 2026-05-08 00:26 | 19.40331 | -70.60437 | 575 ft | 2 kts | 156° |
| 2026-05-08 00:26 | 19.40321 | -70.60446 | 585 ft | 2 kts | 68° |
| 2026-05-08 00:26 | 19.40361 | -70.60444 | 591 ft | 12 kts | 40° |
| 2026-05-08 00:26 | 19.40434 | -70.60449 | 586 ft | 7 kts | 17° |
| 2026-05-08 00:27 | 19.40520 | -70.60434 | 588 ft | 15 kts | 17° |
| 2026-05-08 00:27 | 19.40583 | -70.60407 | 585 ft | 5 kts | 84° |
| 2026-05-08 00:27 | 19.40579 | -70.60339 | 597 ft | 23 kts | 107° |
| 2026-05-08 00:27 | 19.40524 | -70.60087 | 619 ft | 46 kts | 98° |
| 2026-05-08 00:28 | 19.40447 | -70.59720 | 649 ft | 57 kts | 104° |
| 2026-05-08 00:28 | 19.40325 | -70.59256 | 750 ft | 72 kts | 98° |
| 2026-05-08 00:28 | 19.40129 | -70.58777 | 968 ft | 75 kts | 119° |
| 2026-05-08 00:28 | 19.39724 | -70.58394 | 1083 ft | 77 kts | 137° |
| 2026-05-08 00:29 | 19.39244 | -70.58146 | 1327 ft | 79 kts | 153° |
| 2026-05-08 00:29 | 19.38716 | -70.57897 | 1641 ft | 86 kts | 152° |
| 2026-05-08 00:29 | 19.38160 | -70.57645 | 1882 ft | 88 kts | 152° |
| 2026-05-08 00:29 | 19.37605 | -70.57361 | 2054 ft | 89 kts | 147° |
| 2026-05-08 00:30 | 19.37079 | -70.57016 | 2228 ft | 89 kts | 143° |
| 2026-05-08 00:30 | 19.36575 | -70.56621 | 2374 ft | 90 kts | 138° |
| 2026-05-08 00:30 | 19.36097 | -70.56192 | 2446 ft | 90 kts | 136° |
| 2026-05-08 00:30 | 19.35646 | -70.55755 | 2477 ft | 88 kts | 136° |
| 2026-05-08 00:31 | 19.35192 | -70.55309 | 2473 ft | 97 kts | 137° |
| 2026-05-08 00:31 | 19.34652 | -70.54795 | 2503 ft | 104 kts | 135° |
| 2026-05-08 00:31 | 19.34131 | -70.54290 | 2502 ft | 103 kts | 136° |
| 2026-05-08 00:31 | 19.33600 | -70.53781 | 2478 ft | 98 kts | 135° |
| 2026-05-08 00:32 | 19.33115 | -70.53308 | 2484 ft | 95 kts | 135° |
| 2026-05-08 00:32 | 19.32620 | -70.52831 | 2495 ft | 96 kts | 135° |
| 2026-05-08 00:32 | 19.32132 | -70.52362 | 2503 ft | 96 kts | 135° |
| 2026-05-08 00:32 | 19.31635 | -70.51888 | 2505 ft | 96 kts | 136° |
| 2026-05-08 00:33 | 19.31137 | -70.51413 | 2508 ft | 96 kts | 135° |
| 2026-05-08 00:33 | 19.30642 | -70.50939 | 2509 ft | 95 kts | 135° |
| 2026-05-08 00:33 | 19.30151 | -70.50467 | 2509 ft | 95 kts | 135° |
| 2026-05-08 00:33 | 19.29658 | -70.49994 | 2509 ft | 96 kts | 135° |
| 2026-05-08 00:34 | 19.29165 | -70.49522 | 2511 ft | 96 kts | 135° |
| 2026-05-08 00:34 | 19.28675 | -70.49054 | 2510 ft | 96 kts | 135° |
| 2026-05-08 00:34 | 19.28180 | -70.48579 | 2510 ft | 96 kts | 136° |
| 2026-05-08 00:34 | 19.27685 | -70.48103 | 2509 ft | 96 kts | 136° |
| 2026-05-08 00:35 | 19.27189 | -70.47625 | 2506 ft | 96 kts | 136° |
| 2026-05-08 00:35 | 19.26678 | -70.47137 | 2488 ft | 106 kts | 137° |
| 2026-05-08 00:35 | 19.26114 | -70.46607 | 2511 ft | 108 kts | 136° |
| 2026-05-08 00:35 | 19.25544 | -70.46066 | 2507 ft | 113 kts | 136° |
| 2026-05-08 00:36 | 19.24949 | -70.45501 | 2509 ft | 118 kts | 137° |
| 2026-05-08 00:36 | 19.24341 | -70.44921 | 2514 ft | 117 kts | 136° |
| 2026-05-08 00:36 | 19.23738 | -70.44342 | 2512 ft | 116 kts | 136° |
| 2026-05-08 00:36 | 19.23144 | -70.43778 | 2511 ft | 116 kts | 137° |
| 2026-05-08 00:37 | 19.22484 | -70.43278 | 2513 ft | 116 kts | 143° |
| 2026-05-08 00:37 | 19.21812 | -70.42809 | 2512 ft | 115 kts | 144° |
| 2026-05-08 00:37 | 19.21125 | -70.42344 | 2511 ft | 119 kts | 145° |
| 2026-05-08 00:38 | 19.19770 | -70.41421 | 2516 ft | 116 kts | 145° |
| 2026-05-08 00:38 | 19.19095 | -70.40955 | 2514 ft | 116 kts | 145° |
| 2026-05-08 00:38 | 19.18415 | -70.40486 | 2513 ft | 117 kts | 144° |
| 2026-05-08 00:38 | 19.17729 | -70.40014 | 2514 ft | 117 kts | 144° |
| 2026-05-08 00:39 | 19.17055 | -70.39550 | 2512 ft | 117 kts | 144° |
| 2026-05-08 00:39 | 19.16367 | -70.39080 | 2513 ft | 117 kts | 144° |
| 2026-05-08 00:39 | 19.15680 | -70.38610 | 2515 ft | 116 kts | 144° |
| 2026-05-08 00:39 | 19.15011 | -70.38148 | 2514 ft | 114 kts | 144° |
| 2026-05-08 00:40 | 19.14344 | -70.37688 | 2511 ft | 114 kts | 144° |
| 2026-05-08 00:40 | 19.13679 | -70.37231 | 2514 ft | 114 kts | 144° |
| 2026-05-08 00:40 | 19.13023 | -70.36780 | 2513 ft | 114 kts | 143° |
| 2026-05-08 00:40 | 19.12348 | -70.36315 | 2515 ft | 116 kts | 144° |
| 2026-05-08 00:41 | 19.11672 | -70.35849 | 2516 ft | 116 kts | 144° |
| 2026-05-08 00:41 | 19.10999 | -70.35384 | 2524 ft | 116 kts | 144° |
| 2026-05-08 00:41 | 19.10319 | -70.34917 | 2524 ft | 116 kts | 144° |
| 2026-05-08 00:41 | 19.09636 | -70.34450 | 2523 ft | 117 kts | 144° |
| 2026-05-08 00:42 | 19.08954 | -70.33985 | 2529 ft | 115 kts | 143° |
| 2026-05-08 00:42 | 19.08291 | -70.33530 | 2518 ft | 115 kts | 143° |
| 2026-05-08 00:42 | 19.07620 | -70.33070 | 2517 ft | 115 kts | 143° |
| 2026-05-08 00:42 | 19.06954 | -70.32612 | 2519 ft | 114 kts | 143° |
| 2026-05-08 00:43 | 19.06293 | -70.32154 | 2514 ft | 113 kts | 143° |
| 2026-05-08 00:43 | 19.05614 | -70.31690 | 2513 ft | 119 kts | 144° |
| 2026-05-08 00:43 | 19.04918 | -70.31214 | 2519 ft | 118 kts | 143° |
| 2026-05-08 00:43 | 19.04230 | -70.30743 | 2532 ft | 125 kts | 147° |
| 2026-05-08 00:44 | 19.03477 | -70.30233 | 2531 ft | 127 kts | 146° |
| 2026-05-08 00:44 | 19.02748 | -70.29733 | 2522 ft | 127 kts | 146° |
| 2026-05-08 00:44 | 19.02010 | -70.29225 | 2522 ft | 127 kts | 146° |
| 2026-05-08 00:44 | 19.01269 | -70.28718 | 2521 ft | 127 kts | 146° |
| 2026-05-08 00:45 | 19.00528 | -70.28210 | 2522 ft | 127 kts | 146° |
| 2026-05-08 00:45 | 18.99787 | -70.27700 | 2523 ft | 126 kts | 146° |
| 2026-05-08 00:45 | 18.99049 | -70.27191 | 2521 ft | 127 kts | 146° |
| 2026-05-08 00:45 | 18.98320 | -70.26690 | 2517 ft | 126 kts | 146° |
| 2026-05-08 00:46 | 18.97576 | -70.26181 | 2526 ft | 127 kts | 146° |
| 2026-05-08 00:46 | 18.96839 | -70.25675 | 2529 ft | 126 kts | 146° |
| 2026-05-08 00:46 | 18.96102 | -70.25171 | 2530 ft | 126 kts | 146° |
| 2026-05-08 00:46 | 18.95372 | -70.24672 | 2528 ft | 126 kts | 146° |
| 2026-05-08 00:47 | 18.94631 | -70.24164 | 2532 ft | 126 kts | 146° |
| 2026-05-08 00:47 | 18.93894 | -70.23660 | 2534 ft | 126 kts | 146° |
| 2026-05-08 00:47 | 18.93153 | -70.23152 | 2534 ft | 126 kts | 146° |
| 2026-05-08 00:47 | 18.92423 | -70.22653 | 2530 ft | 126 kts | 146° |
| 2026-05-08 00:48 | 18.91685 | -70.22150 | 2531 ft | 126 kts | 146° |
| 2026-05-08 00:48 | 18.90946 | -70.21645 | 2535 ft | 126 kts | 146° |
| 2026-05-08 00:48 | 18.90211 | -70.21140 | 2535 ft | 126 kts | 146° |
| 2026-05-08 00:48 | 18.89475 | -70.20636 | 2534 ft | 126 kts | 146° |
| 2026-05-08 00:49 | 18.88735 | -70.20131 | 2526 ft | 126 kts | 146° |
| 2026-05-08 00:49 | 18.88028 | -70.19640 | 2511 ft | 118 kts | 146° |
| 2026-05-08 00:49 | 18.87353 | -70.19169 | 2512 ft | 118 kts | 146° |
| 2026-05-08 00:49 | 18.86664 | -70.18698 | 2517 ft | 118 kts | 147° |
| 2026-05-08 00:50 | 18.85970 | -70.18227 | 2526 ft | 118 kts | 147° |
| 2026-05-08 00:50 | 18.85279 | -70.17756 | 2529 ft | 117 kts | 146° |
| 2026-05-08 00:50 | 18.84594 | -70.17285 | 2524 ft | 118 kts | 147° |
| 2026-05-08 00:50 | 18.83905 | -70.16815 | 2529 ft | 119 kts | 146° |
| 2026-05-08 00:51 | 18.83210 | -70.16338 | 2533 ft | 118 kts | 146° |
| 2026-05-08 00:51 | 18.82525 | -70.15867 | 2529 ft | 118 kts | 147° |
| 2026-05-08 00:51 | 18.81831 | -70.15397 | 2532 ft | 119 kts | 147° |
| 2026-05-08 00:51 | 18.81127 | -70.14921 | 2534 ft | 120 kts | 147° |
| 2026-05-08 00:52 | 18.80436 | -70.14447 | 2528 ft | 120 kts | 148° |
| 2026-05-08 00:52 | 18.79728 | -70.13968 | 2529 ft | 121 kts | 149° |
| 2026-05-08 00:52 | 18.79018 | -70.13488 | 2537 ft | 119 kts | 146° |
| 2026-05-08 00:52 | 18.78326 | -70.13012 | 2533 ft | 119 kts | 147° |
| 2026-05-08 00:53 | 18.77623 | -70.12535 | 2540 ft | 119 kts | 146° |
| 2026-05-08 00:53 | 18.76937 | -70.12063 | 2535 ft | 118 kts | 147° |
| 2026-05-08 00:53 | 18.76242 | -70.11588 | 2535 ft | 119 kts | 147° |
| 2026-05-08 00:53 | 18.75548 | -70.11114 | 2533 ft | 119 kts | 147° |
| 2026-05-08 00:54 | 18.74844 | -70.10638 | 2539 ft | 120 kts | 146° |
| 2026-05-08 00:54 | 18.74152 | -70.10162 | 2538 ft | 118 kts | 146° |
| 2026-05-08 00:54 | 18.73463 | -70.09687 | 2535 ft | 118 kts | 146° |
| 2026-05-08 00:54 | 18.72781 | -70.09222 | 2540 ft | 119 kts | 146° |
| 2026-05-08 00:55 | 18.72089 | -70.08747 | 2534 ft | 118 kts | 146° |
| 2026-05-08 00:55 | 18.71415 | -70.08283 | 2555 ft | 106 kts | 145° |
| 2026-05-08 00:55 | 18.70854 | -70.07883 | 2535 ft | 95 kts | 146° |
| 2026-05-08 00:55 | 18.70296 | -70.07489 | 2361 ft | 96 kts | 146° |
| 2026-05-08 00:56 | 18.69741 | -70.07095 | 2193 ft | 96 kts | 145° |
| 2026-05-08 00:56 | 18.69158 | -70.06695 | 2106 ft | 102 kts | 146° |
| 2026-05-08 00:56 | 18.68568 | -70.06299 | 2075 ft | 101 kts | 146° |
| 2026-05-08 00:56 | 18.67974 | -70.05897 | 2056 ft | 101 kts | 146° |
| 2026-05-08 00:57 | 18.67378 | -70.05496 | 2045 ft | 102 kts | 146° |
| 2026-05-08 00:57 | 18.66782 | -70.05093 | 2039 ft | 101 kts | 145° |
| 2026-05-08 00:57 | 18.66193 | -70.04684 | 1879 ft | 101 kts | 144° |
| 2026-05-08 00:57 | 18.65616 | -70.04279 | 1708 ft | 101 kts | 145° |
| 2026-05-08 00:58 | 18.65028 | -70.03872 | 1617 ft | 101 kts | 146° |
| 2026-05-08 00:58 | 18.64433 | -70.03469 | 1573 ft | 102 kts | 147° |
| 2026-05-08 00:58 | 18.63862 | -70.03073 | 1669 ft | 95 kts | 146° |
| 2026-05-08 00:58 | 18.63325 | -70.02657 | 1770 ft | 98 kts | 139° |
| 2026-05-08 00:59 | 18.62852 | -70.02153 | 1896 ft | 98 kts | 134° |
| 2026-05-08 00:59 | 18.62356 | -70.01629 | 1839 ft | 103 kts | 133° |
| 2026-05-08 00:59 | 18.61862 | -70.01073 | 1676 ft | 104 kts | 131° |
| 2026-05-08 00:59 | 18.61384 | -70.00504 | 1452 ft | 102 kts | 130° |
| 2026-05-08 01:00 | 18.60951 | -69.99902 | 1187 ft | 102 kts | 120° |
| 2026-05-08 01:00 | 18.60636 | -69.99339 | 1048 ft | 76 kts | 123° |
| 2026-05-08 01:00 | 18.60357 | -69.98887 | 857 ft | 72 kts | 129° |
| 2026-05-08 01:00 | 18.60037 | -69.98542 | 700 ft | 63 kts | 153° |
| 2026-05-08 01:01 | 18.59640 | -69.98399 | 528 ft | 55 kts | 170° |
| 2026-05-08 01:01 | 18.59290 | -69.98362 | 453 ft | 49 kts | 186° |
| 2026-05-08 01:01 | 18.58957 | -69.98390 | 404 ft | 49 kts | 184° |
| 2026-05-08 01:01 | 18.58604 | -69.98418 | 307 ft | 51 kts | 185° |
| 2026-05-08 01:02 | 18.58275 | -69.98451 | 190 ft | 42 kts | 186° |
| 2026-05-08 01:02 | 18.58039 | -69.98477 | 102 ft | 21 kts | 188° |
| 2026-05-08 01:02 | 18.57967 | -69.98471 | 93 ft | 5 kts | 122° |
| 2026-05-08 01:02 | 18.57961 | -69.98435 | 91 ft | 9 kts | 97° |
| 2026-05-08 01:03 | 18.57949 | -69.98376 | 97 ft | 7 kts | 97° |
| 2026-05-08 01:03 | 18.57896 | -69.98326 | 100 ft | 8 kts | 99° |
| 2026-05-08 01:03 | 18.57887 | -69.98283 | 85 ft | 5 kts | 99° |
| 2026-05-08 01:03 | 18.57884 | -69.98264 | 70 ft | 0 kts | 96° |